Flight Track Log - Related Links

Times and Time Zones

All times are in EDT time to prevent confusion due to time zone crossing. See the SWA484 flight status page for this flight to view local times or setup timezone preferences in your user account.

Time Position Orientation Groundspeed Altitude Reporting Facility
EDT Latitude Longitude Course Direction KTS MPH feet Rate Location/Type
Tue 04:58:13 PM 36.2167 -86.6833 357° North 255 293 3,600  Level Nashville TRACON
Tue 04:59:13 PM 36.2333 -86.7667 284° West 279 321 6,700 3,196 Climbing Nashville TRACON
Tue 04:59:45 PM 36.2311 -86.8217 267° West 269 310 8,500 2,543 Climbing Memphis Center
Tue 05:00:45 PM 36.2378 -86.9064 276° West 294 338 10,600 2,050 Climbing Memphis Center
Tue 05:01:45 PM 36.2511 -87.0164 279° West 322 371 12,600 2,450 Climbing Memphis Center
Tue 05:02:45 PM 36.2625 -87.1344 277° West 342 394 15,500 2,650 Climbing Memphis Center
Tue 05:03:45 PM 36.2786 -87.2675 279° West 356 410 17,900 2,350 Climbing Memphis Center
Tue 05:04:45 PM 36.2983 -87.3931 281° West 369 425 20,200 2,300 Climbing Memphis Center
Tue 05:05:45 PM 36.3136 -87.5214 278° West 375 432 22,500 1,850 Climbing Memphis Center
Tue 05:06:45 PM 36.3083 -87.6581 267° West 384 442 23,900 1,500 Climbing Memphis Center
Tue 05:07:45 PM 36.3011 -87.7972 266° West 403 464 25,500 1,500 Climbing Memphis Center
Tue 05:08:45 PM 36.2956 -87.9392 267° West 408 470 26,900 1,300 Climbing Memphis Center
Tue 05:09:45 PM 36.2858 -88.0861 265° West 419 482 28,100 1,150 Climbing Memphis Center
Tue 05:10:45 PM 36.2778 -88.2306 266° West 425 489 29,200 1,350 Climbing Memphis Center
Tue 05:11:45 PM 36.2700 -88.3825 266° West 431 496 30,800 1,500 Climbing Memphis Center
Tue 05:12:45 PM 36.2619 -88.5319 266° West 441 507 32,200 1,450 Climbing Memphis Center
Tue 05:13:45 PM 36.2536 -88.6842 266° West 441 507 33,700 900 Climbing Memphis Center
Tue 05:14:45 PM 36.2447 -88.8131 265° West 441 507 34,000 450 Climbing Memphis Center
Tue 05:15:45 PM 36.2361 -88.9622 266° West 441 507 34,600 1,000 Climbing Memphis Center
Tue 05:16:45 PM 36.2272 -89.1067 266° West 441 507 36,000 700 Climbing Memphis Center
Tue 05:17:45 PM 36.2161 -89.2508 265° West 435 501 36,000  Level Memphis Center
Tue 05:18:45 PM 36.2050 -89.4028 265° West 435 501 36,000  Level Memphis Center
Tue 05:19:45 PM 36.1997 -89.5467 267° West 435 501 36,000  Level Memphis Center
Tue 05:20:45 PM 36.1922 -89.6908 266° West 429 494 36,000 400 Level Memphis Center
Tue 05:21:45 PM 36.1825 -89.8350 265° West 424 488 36,800 900 Climbing Memphis Center
Tue 05:22:45 PM 36.1747 -89.9764 266° West 424 488 37,800 600 Climbing Memphis Center
Tue 05:23:45 PM 36.1667 -90.1206 266° West 424 488 38,000 100 Climbing Memphis Center
Tue 05:24:45 PM 36.1544 -90.2772 265° West 424 488 38,000  Level Memphis Center
Tue 05:25:45 PM 36.1461 -90.4211 266° West 424 488 38,000  Level Memphis Center
Tue 05:26:45 PM 36.1356 -90.5625 265° West 424 488 38,000  Level Memphis Center
Tue 05:27:45 PM 36.1247 -90.7064 265° West 419 482 38,000  Level Memphis Center
Tue 05:28:45 PM 36.1139 -90.8450 265° West 424 488 38,000  Level Memphis Center
Tue 05:29:45 PM 36.1069 -90.9889 267° West 419 482 38,000  Level Memphis Center
Tue 05:30:45 PM 36.1144 -91.1278 274° West 414 476 38,000  Level Memphis Center
Tue 05:31:45 PM 36.1178 -91.2667 272° West 414 476 38,000  Level Memphis Center
Tue 05:32:45 PM 36.1231 -91.4081 273° West 414 476 38,000  Level Memphis Center
Tue 05:33:45 PM 36.1258 -91.5467 271° West 409 471 38,000  Level Memphis Center
Tue 05:34:45 PM 36.1328 -91.6856 274° West 409 471 38,000  Level Memphis Center
Tue 05:35:45 PM 36.1356 -91.8219 271° West 404 465 38,000  Level Memphis Center
Tue 05:36:45 PM 36.1381 -91.9581 271° West 404 465 38,000  Level Memphis Center
Tue 05:37:45 PM 36.1428 -92.0714 273° West 404 465 38,000  Level Memphis Center
Tue 05:38:45 PM 36.1531 -92.2206 275° West 404 465 38,000  Level Memphis Center
Tue 05:39:45 PM 36.1531 -92.3594 270° West 404 465 38,000  Level Memphis Center
Tue 05:40:45 PM 36.1592 -92.4983 273° West 404 465 38,000  Level Memphis Center
Tue 05:41:45 PM 36.1608 -92.6397 271° West 404 465 38,000  Level Memphis Center
Tue 05:42:45 PM 36.1639 -92.7967 271° West 417 480 38,000  Level Memphis Center
Tue 05:43:45 PM 36.1694 -92.9408 273° West 417 480 38,000  Level Memphis Center
Tue 05:44:45 PM 36.1706 -93.0875 271° West 424 488 38,000  Level Memphis Center
Tue 05:45:45 PM 36.1736 -93.2239 272° West 419 482 38,000  Level Memphis Center
Tue 05:46:45 PM 36.1767 -93.3653 272° West 419 482 38,000  Level Memphis Center
Tue 05:47:45 PM 36.1794 -93.5069 271° West 419 482 38,000  Level Memphis Center
Tue 05:48:45 PM 36.1819 -93.6458 271° West 419 482 38,000  Level Memphis Center
Tue 05:49:45 PM 36.1850 -93.7719 272° West 419 482 38,000  Level Memphis Center
Tue 05:50:45 PM 36.1872 -93.9161 271° West 419 482 38,000  Level Memphis Center
Tue 05:51:45 PM 36.1892 -94.0600 271° West 419 482 38,000  Level Memphis Center
Tue 05:53:51 PM 36.1928 -94.3731 271° West 420 483 38,000  Level Kansas City Center
Tue 05:54:52 PM 36.1939 -94.5175 271° West 420 483 38,000  Level Kansas City Center
Tue 05:55:56 PM 36.1936 -94.6619 270° West 419 482 38,000  Level Kansas City Center
Tue 05:56:57 PM 36.1947 -94.8050 271° West 417 480 38,000  Level Kansas City Center
Tue 05:58:00 PM 36.1947 -94.9486 270° West 415 478 38,000  Level Kansas City Center
Tue 05:59:01 PM 36.1953 -95.1108 270° West 411 473 38,000  Level Kansas City Center
Tue 06:00:03 PM 36.1944 -95.2506 270° West 409 471 38,000  Level Kansas City Center
Tue 06:01:06 PM 36.1939 -95.3931 270° West 414 476 38,000  Level Kansas City Center
Tue 06:02:07 PM 36.1956 -95.5372 271° West 418 481 38,000  Level Kansas City Center
Tue 06:03:10 PM 36.1961 -95.6792 270° West 415 478 38,000  Level Kansas City Center
Tue 06:04:11 PM 36.1897 -95.8406 267° West 419 482 38,000  Level Kansas City Center
Tue 06:05:15 PM 36.1767 -95.9836 264° West 419 482 38,000  Level Kansas City Center
Tue 06:06:16 PM 36.1647 -96.1261 264° West 416 479 38,000  Level Kansas City Center
Tue 06:07:19 PM 36.1528 -96.2686 264° West 416 479 38,000  Level Kansas City Center
Tue 06:08:21 PM 36.1386 -96.4103 263° West 416 479 38,000  Level Kansas City Center
Tue 06:09:22 PM 36.1228 -96.5822 264° West 418 481 38,000  Level Kansas City Center
Tue 06:10:23 PM 36.1097 -96.7236 264° West 416 479 38,000  Level Kansas City Center
Tue 06:11:26 PM 36.0964 -96.8717 264° West 422 486 38,000  Level Kansas City Center
Tue 06:12:28 PM 36.0811 -97.0131 262° West 420 483 38,000  Level Kansas City Center
Tue 06:13:31 PM 36.0678 -97.1547 263° West 419 482 38,000  Level Kansas City Center
Tue 06:14:32 PM 36.0533 -97.2953 263° West 417 480 38,000  Level Kansas City Center
Tue 06:15:33 PM 36.0361 -97.4661 263° West 419 482 38,000  Level Kansas City Center
Tue 06:16:37 PM 36.0225 -97.6086 263° West 420 483 38,000  Level Kansas City Center
Tue 06:17:37 PM 36.0067 -97.7483 262° West 416 479 38,000  Level Kansas City Center
Tue 06:18:41 PM 35.9928 -97.8897 263° West 417 480 38,000  Level Kansas City Center
Tue 06:19:41 PM 35.9772 -98.0308 262° West 418 481 38,000  Level Kansas City Center
Tue 06:20:45 PM 35.9600 -98.1864 262° West 420 483 38,000  Level Kansas City Center
Tue 06:21:46 PM 35.9444 -98.3289 262° West 420 483 38,000  Level Kansas City Center
Tue 06:22:47 PM 35.9289 -98.4725 262° West 420 483 38,000  Level Kansas City Center
Tue 06:23:49 PM 35.9117 -98.6153 262° West 421 484 38,000  Level Kansas City Center
Tue 06:24:52 PM 35.8939 -98.7700 262° West 421 484 38,000  Level Kansas City Center
Tue 06:25:53 PM 35.8775 -98.9117 262° West 419 482 38,000  Level Kansas City Center
Tue 06:26:57 PM 35.8561 -99.0811 261° West 418 481 38,000  Level Kansas City Center
Tue 06:27:58 PM 35.8381 -99.2231 261° West 421 484 38,000  Level Kansas City Center
Tue 06:29:02 PM 35.8253 -99.3647 264° West 418 481 38,000  Level Kansas City Center
Tue 06:30:02 PM 35.8064 -99.5078 261° West 417 480 38,000  Level Kansas City Center
Tue 06:31:06 PM 35.7900 -99.6492 262° West 416 479 38,000  Level Kansas City Center
Tue 06:32:06 PM 35.7731 -99.7906 262° West 416 479 38,000  Level Kansas City Center
Tue 06:33:10 PM 35.7550 -99.9319 261° West 417 480 38,000  Level Kansas City Center
Tue 06:33:46 PM 35.7425 -100.0442 262° West 416 479 38,000  Level Albuquerque Center
Tue 06:34:47 PM 35.7239 -100.1869 261° West 420 483 38,000  Level Albuquerque Center
Tue 06:35:49 PM 35.7058 -100.3286 261° West 420 483 38,000  Level Albuquerque Center
Tue 06:36:50 PM 35.6878 -100.4700 261° West 418 481 38,000  Level Albuquerque Center
Tue 06:37:52 PM 35.6733 -100.6131 263° West 419 482 38,000  Level Albuquerque Center
Tue 06:38:54 PM 35.6517 -100.7581 260° West 420 483 38,000  Level Albuquerque Center
Tue 06:39:55 PM 35.6336 -100.8981 261° West 417 480 38,000  Level Albuquerque Center
Tue 06:40:57 PM 35.6139 -101.0378 260° West 417 480 38,000  Level Albuquerque Center
Tue 06:41:58 PM 35.5958 -101.1781 261° West 418 481 38,000  Level Albuquerque Center
Tue 06:43:00 PM 35.5728 -101.3464 260° West 418 481 38,000  Level Albuquerque Center
Tue 06:44:01 PM 35.5547 -101.4872 261° West 420 483 38,000  Level Albuquerque Center
Tue 06:45:03 PM 35.5358 -101.6292 261° West 424 488 38,000  Level Albuquerque Center
Tue 06:46:04 PM 35.5153 -101.7767 260° West 426 490 38,000  Level Albuquerque Center
Tue 06:47:06 PM 35.4981 -101.9136 261° West 423 487 38,000  Level Albuquerque Center
Tue 06:48:07 PM 35.4717 -102.0803 259° West 427 491 38,000  Level Albuquerque Center
Tue 06:49:09 PM 35.4511 -102.2203 260° West 423 487 38,000  Level Albuquerque Center
Tue 06:50:10 PM 35.4300 -102.3608 260° West 423 487 38,000  Level Albuquerque Center
Tue 06:51:11 PM 35.4100 -102.5017 260° West 422 486 38,000  Level Albuquerque Center
Tue 06:52:13 PM 35.3889 -102.6508 260° West 421 484 38,000  Level Albuquerque Center
Tue 06:53:14 PM 35.3675 -102.7928 260° West 420 483 38,000  Level Albuquerque Center
Tue 06:54:16 PM 35.3467 -102.9350 260° West 420 483 38,000  Level Albuquerque Center
Tue 06:55:17 PM 35.3250 -103.0792 260° West 425 489 38,000  Level Albuquerque Center
Tue 06:56:18 PM 35.3036 -103.2222 260° West 424 488 38,000  Level Albuquerque Center
Tue 06:57:20 PM 35.2814 -103.3644 259° West 423 487 38,000  Level Albuquerque Center
Tue 06:58:21 PM 35.2594 -103.5056 259° West 421 484 38,000  Level Albuquerque Center
Tue 06:59:22 PM 35.2372 -103.6478 259° West 420 483 38,000  Level Albuquerque Center
Tue 07:00:24 PM 35.2147 -103.7897 259° West 422 486 38,000  Level Albuquerque Center
Tue 07:01:25 PM 35.1903 -103.9439 259° West 423 487 38,000  Level Albuquerque Center
Tue 07:02:26 PM 35.1667 -104.0875 259° West 429 494 38,000  Level Albuquerque Center
Tue 07:03:28 PM 35.1442 -104.2283 259° West 424 488 38,000  Level Albuquerque Center
Tue 07:04:29 PM 35.1239 -104.3703 260° West 424 488 38,000  Level Albuquerque Center
Tue 07:05:30 PM 35.0989 -104.5108 258° West 423 487 38,000  Level Albuquerque Center
Tue 07:06:32 PM 35.0742 -104.6564 258° West 426 490 38,000  Level Albuquerque Center
Tue 07:07:33 PM 35.0503 -104.7978 258° West 423 487 38,000  Level Albuquerque Center
Tue 07:08:34 PM 35.0239 -104.9625 259° West 421 484 38,000  Level Albuquerque Center
Tue 07:09:36 PM 34.9994 -105.1036 258° West 422 486 38,000  Level Albuquerque Center
Tue 07:10:37 PM 34.9756 -105.2442 258° West 420 483 38,000  Level Albuquerque Center
Tue 07:11:39 PM 34.9517 -105.3844 258° West 420 483 38,000  Level Albuquerque Center
Tue 07:12:40 PM 34.9275 -105.5247 258° West 420 483 38,000  Level Albuquerque Center
Tue 07:13:41 PM 34.9033 -105.6586 258° West 419 482 38,000  Level Albuquerque Center
Tue 07:14:43 PM 34.8792 -105.7981 258° West 419 482 38,000  Level Albuquerque Center
Tue 07:15:44 PM 34.8550 -105.9364 258° West 418 481 38,000  Level Albuquerque Center
Tue 07:16:45 PM 34.8303 -106.0761 258° West 419 482 38,000  Level Albuquerque Center
Tue 07:17:47 PM 34.8050 -106.2158 258° West 420 483 38,000  Level Albuquerque Center
Tue 07:18:48 PM 34.7806 -106.3561 258° West 422 486 38,000  Level Albuquerque Center
Tue 07:19:49 PM 34.7547 -106.4958 257° West 422 486 38,000  Level Albuquerque Center
Tue 07:20:51 PM 34.7239 -106.6647 258° West 425 489 38,000 -49 Level Albuquerque Center
Tue 07:21:52 PM 34.6989 -106.8036 258° West 421 484 37,900  Descending Albuquerque Center
Tue 07:22:53 PM 34.6742 -106.9450 258° West 423 487 38,000 49 Climbing Albuquerque Center
Tue 07:23:55 PM 34.6483 -107.0831 257° West 421 484 38,000  Level Albuquerque Center
Tue 07:24:56 PM 34.6214 -107.2319 258° West 421 484 38,000  Level Albuquerque Center
Tue 07:25:57 PM 34.5953 -107.3694 257° West 420 483 38,000  Level Albuquerque Center
Tue 07:26:59 PM 34.5664 -107.4939 254° West 420 483 38,000  Level Albuquerque Center
Tue 07:28:00 PM 34.5408 -107.6344 258° West 425 489 38,000  Level Albuquerque Center
Tue 07:29:02 PM 34.5150 -107.7736 257° West 425 489 38,000  Level Albuquerque Center
Tue 07:30:03 PM 34.4894 -107.9125 257° West 422 486 38,000  Level Albuquerque Center
Tue 07:31:04 PM 34.4622 -108.0531 257° West 426 490 38,000  Level Albuquerque Center
Tue 07:32:06 PM 34.4297 -108.2200 257° West 426 490 38,000  Level Albuquerque Center
Tue 07:33:07 PM 34.4025 -108.3594 257° West 425 489 38,000  Level Albuquerque Center
Tue 07:34:08 PM 34.3753 -108.4989 257° West 427 491 38,000  Level Albuquerque Center
Tue 07:35:10 PM 34.3492 -108.6306 257° West 423 487 38,000  Level Albuquerque Center
Tue 07:36:11 PM 34.3167 -108.7872 256° West 426 490 38,000  Level Albuquerque Center
Tue 07:37:12 PM 34.2900 -108.9206 256° West 427 491 38,000  Level Albuquerque Center
Tue 07:38:14 PM 34.2581 -109.0756 256° West 425 489 38,000  Level Albuquerque Center
Tue 07:39:15 PM 34.2333 -109.1986 256° West 427 491 38,000  Level Albuquerque Center
Tue 07:40:17 PM 34.2053 -109.3356 256° West 426 490 38,000  Level Albuquerque Center
Tue 07:41:18 PM 34.1714 -109.4961 256° West 424 488 38,000  Level Albuquerque Center
Tue 07:42:19 PM 34.1442 -109.6264 256° West 421 484 38,000  Level Albuquerque Center
Tue 07:43:21 PM 34.1122 -109.7806 256° West 422 486 38,000  Level Albuquerque Center
Tue 07:44:22 PM 34.0847 -109.9128 256° West 424 488 38,000  Level Albuquerque Center
Tue 07:45:24 PM 34.0567 -110.0453 256° West 425 489 38,000  Level Albuquerque Center
Tue 07:46:25 PM 34.0267 -110.1847 255° West 427 491 38,000  Level Albuquerque Center
Tue 07:47:26 PM 33.9956 -110.3242 255° West 430 495 38,000  Level Albuquerque Center
Tue 07:48:58 PM 33.9483 -110.5369 255° West 427 491 38,000  Level Los Angeles Center
Tue 07:49:29 PM 33.9317 -110.6181 256° West 425 489 38,000  Level Albuquerque Center
Tue 07:50:31 PM 33.9019 -110.7544 255° West 422 486 38,000  Level Albuquerque Center
Tue 07:51:32 PM 33.8708 -110.8900 255° West 421 484 38,000  Level Albuquerque Center
Tue 07:52:34 PM 33.8414 -111.0269 256° West 422 486 38,000  Level Albuquerque Center
Tue 07:53:35 PM 33.8111 -111.1639 255° West 424 488 38,000  Level Albuquerque Center
Tue 07:54:37 PM 33.7794 -111.3014 255° West 425 489 38,000  Level Albuquerque Center
Tue 07:55:38 PM 33.7483 -111.4386 255° West 423 487 38,000  Level Albuquerque Center
Tue 07:56:40 PM 33.7164 -111.5767 254° West 424 488 38,000  Level Albuquerque Center
Tue 07:57:41 PM 33.6789 -111.7436 255° West 426 490 38,000  Level Albuquerque Center
Tue 07:58:43 PM 33.6461 -111.8819 254° West 427 491 38,000  Level Albuquerque Center
Tue 07:59:44 PM 33.6147 -112.0192 255° West 425 489 38,000  Level Albuquerque Center
Tue 08:00:46 PM 33.5825 -112.1553 254° West 424 488 38,000  Level Albuquerque Center
Tue 08:01:47 PM 33.5511 -112.2908 255° West 422 486 38,000  Level Albuquerque Center
Tue 08:02:49 PM 33.5194 -112.4267 254° West 422 486 38,000  Level Albuquerque Center
Tue 08:03:51 PM 33.4878 -112.5603 254° West 418 481 38,000  Level Albuquerque Center
Tue 08:04:52 PM 33.4550 -112.7011 254° West 421 484 38,000  Level Albuquerque Center
Tue 08:05:54 PM 33.4228 -112.8364 254° West 423 487 38,000  Level Albuquerque Center
Tue 08:06:56 PM 33.3897 -112.9711 254° West 423 487 38,000  Level Albuquerque Center
Tue 08:07:57 PM 33.3506 -113.1336 254° West 425 489 38,000 -439 Level Albuquerque Center
Tue 08:08:59 PM 33.3172 -113.2700 254° West 429 494 37,100 -919 Descending Albuquerque Center
Tue 08:10:01 PM 33.2844 -113.4053 254° West 427 491 36,100 -927 Descending Albuquerque Center
Tue 08:11:02 PM 33.2519 -113.5422 254° West 430 495 35,200 -927 Descending Albuquerque Center
Tue 08:12:04 PM 33.2172 -113.6800 253° West 434 499 34,200 -581 Descending Albuquerque Center
Tue 08:13:06 PM 33.1831 -113.8183 254° West 436 502 34,000 -97 Descending Albuquerque Center
Tue 08:14:08 PM 33.1419 -113.9833 253° West 436 502 34,000  Level Albuquerque Center
Tue 08:15:10 PM 33.1067 -114.1200 253° West 434 499 34,000  Level Albuquerque Center
Tue 08:16:11 PM 33.0717 -114.2583 253° West 435 501 34,000  Level Albuquerque Center
Tue 08:17:13 PM 33.0364 -114.3964 253° West 437 503 34,000  Level Albuquerque Center
Tue 08:17:55 PM 33.0144 -114.4878 254° West 438 504 34,000 -231 Level Los Angeles Center
Tue 08:18:57 PM 32.9786 -114.6253 253° West 436 502 33,600 -774 Descending Los Angeles Center
Tue 08:19:59 PM 32.9369 -114.7906 253° West 435 501 32,400 -1,065 Descending Los Angeles Center
Tue 08:21:01 PM 32.9017 -114.9278 253° West 435 501 31,400 -968 Descending Los Angeles Center
Tue 08:22:03 PM 32.8656 -115.0611 252° West 425 489 30,400 -1,016 Descending Los Angeles Center
Tue 08:23:05 PM 32.8317 -115.1933 253° West 420 483 29,300 -1,016 Descending Los Angeles Center
Tue 08:24:07 PM 32.7969 -115.3233 252° West 414 476 28,300 -1,065 Descending Los Angeles Center
Tue 08:25:09 PM 32.7631 -115.4519 253° West 410 472 27,100 -1,355 Descending Los Angeles Center
Tue 08:26:11 PM 32.7511 -115.6036 265° West 383 441 25,500 -1,645 Descending Los Angeles Center
Tue 08:27:13 PM 32.7533 -115.7242 271° West 367 422 23,700 -1,790 Descending Los Angeles Center
Tue 08:28:15 PM 32.7572 -115.8425 272° West 360 414 21,800 -1,984 Descending Los Angeles Center
Tue 08:29:17 PM 32.7592 -115.9561 271° West 348 400 19,600 -2,323 Descending Los Angeles Center
Tue 08:30:19 PM 32.7614 -116.0728 271° West 351 404 17,000 -2,371 Descending Los Angeles Center
Tue 08:31:21 PM 32.7644 -116.1900 272° West 354 407 14,700 -2,129 Descending Los Angeles Center
Tue 08:32:23 PM 32.7650 -116.3078 270° West 354 407 12,600 -1,839 Descending Los Angeles Center
Tue 08:33:25 PM 32.7472 -116.4158 259° West 338 389 10,900 -1,279 Descending Los Angeles Center
Tue 08:34:39 PM 32.7108 -116.5250 248° West 293 337 9,700 -1,279 Descending Los Angeles Center
Tue 08:35:41 PM 32.6725 -116.6303 247° West 287 330 8,000 -1,306 Descending Los Angeles Center
Tue 08:36:43 PM 32.6428 -116.7144 247° West 280 322 7,000 -532 Descending Los Angeles Center
Tue 08:37:45 PM 32.6353 -116.7875 263° West 230 265 6,900 -677 Descending Los Angeles Center
Tue 08:38:47 PM 32.6519 -116.8578 286° West 221 254 5,600 -1,307 Descending Los Angeles Center
Tue 08:39:26 PM 32.6667 -116.9167 287° West 223 257 4,700 -1,212 Descending Southern California TRACON
Tue 08:40:26 PM 32.6833 -116.9833 287° West 207 238 3,600 -1,100 Descending Southern California TRACON
Tue 08:41:26 PM 32.7000 -117.0333 292° West 173 199 2,500 -893 Descending Southern California TRACON
Tue 08:42:27 PM 32.7000 -117.0833 270° West 142 163 1,800 -744 Descending Southern California TRACON
Tue 08:43:27 PM 32.7167 -117.1333 292° West 132 152 1,000 -733 Descending Southern California TRACON
Tue 08:43:57 PM 32.7214 -117.1433 299° West 134 154 700 -522 Descending Los Angeles Center
Tue 08:44:59 PM 32.7317 -117.1889 285° West 131 151 200 -484 Descending Los Angeles Center
Tue 08:46:00 PM 32.7333 -117.1833 281° West  Level FlightAware Approximate
Tue 08:53:00 PM 32.7336 -117.1897 281° West  Level Estimated

Login

Don't have an account? Register now (free) for customized features, flight alerts, and more!